La Guera, Western Sahara
Current Conditions -  °F | °C
As of 11:00 PM on Thursday 18 Dec 2014 (Local Time) from GQPP Reporting Station
Clear Clear  
Wind Chill: 63°   Ceiling: Unl
Heat Index: 63°   Visibility: 5mi
Dew Point: 48°   Wind: 9mph
Humidity: 59%   Direction: 360°N
Pressure: 30.12"   Gusts: NA
Location:  20.83°N, 17.1°W
Report Text: GQPP 182300Z 36008KT 8000 NSC 17/09 Q1020 NOSIG
Loading
Personal Weather Stations






























Interactive Weather Map New forecast layout! Learn more

10-Day Weather Forecast

Advertisements
Track Severe Weather on mobile